sensor_id;sensor_type;location;lat;lon;timestamp;P1;durP1;ratioP1;P2;durP2;ratioP2
64520;SDS011;50896;46.714;17.322;2023-05-19T00:02:07;14.40;;;6.40;;
64520;SDS011;50896;46.714;17.322;2023-05-19T00:04:35;10.80;;;5.47;;
64520;SDS011;50896;46.714;17.322;2023-05-19T00:07:03;12.05;;;5.97;;
64520;SDS011;50896;46.714;17.322;2023-05-19T00:09:31;15.10;;;6.05;;
64520;SDS011;50896;46.714;17.322;2023-05-19T00:11:58;11.70;;;6.22;;
64520;SDS011;50896;46.714;17.322;2023-05-19T00:14:25;13.15;;;6.60;;
64520;SDS011;50896;46.714;17.322;2023-05-19T00:16:52;14.70;;;7.10;;
64520;SDS011;50896;46.714;17.322;2023-05-19T00:19:21;14.45;;;7.00;;
64520;SDS011;50896;46.714;17.322;2023-05-19T00:21:51;11.60;;;6.70;;
64520;SDS011;50896;46.714;17.322;2023-05-19T00:24:18;9.75;;;6.28;;
64520;SDS011;50896;46.714;17.322;2023-05-19T00:26:45;9.52;;;6.00;;
64520;SDS011;50896;46.714;17.322;2023-05-19T00:29:12;9.25;;;6.15;;
64520;SDS011;50896;46.714;17.322;2023-05-19T00:31:44;12.30;;;7.30;;
64520;SDS011;50896;46.714;17.322;2023-05-19T00:34:11;19.40;;;7.10;;
64520;SDS011;50896;46.714;17.322;2023-05-19T00:36:38;16.38;;;6.65;;
64520;SDS011;50896;46.714;17.322;2023-05-19T00:39:05;13.13;;;6.50;;
64520;SDS011;50896;46.714;17.322;2023-05-19T00:41:32;14.10;;;6.07;;
64520;SDS011;50896;46.714;17.322;2023-05-19T00:43:59;10.20;;;5.88;;
64520;SDS011;50896;46.714;17.322;2023-05-19T00:46:26;10.32;;;6.18;;
64520;SDS011;50896;46.714;17.322;2023-05-19T00:48:53;13.15;;;6.90;;
64520;SDS011;50896;46.714;17.322;2023-05-19T00:51:21;12.45;;;6.38;;
64520;SDS011;50896;46.714;17.322;2023-05-19T00:53:49;13.85;;;6.93;;
64520;SDS011;50896;46.714;17.322;2023-05-19T00:56:17;13.88;;;7.10;;
64520;SDS011;50896;46.714;17.322;2023-05-19T00:58:45;10.13;;;6.47;;
64520;SDS011;50896;46.714;17.322;2023-05-19T01:01:12;13.90;;;7.03;;
64520;SDS011;50896;46.714;17.322;2023-05-19T01:03:42;12.82;;;6.47;;
64520;SDS011;50896;46.714;17.322;2023-05-19T01:06:10;20.50;;;6.40;;
64520;SDS011;50896;46.714;17.322;2023-05-19T01:08:37;10.52;;;6.20;;
64520;SDS011;50896;46.714;17.322;2023-05-19T01:11:05;10.25;;;5.97;;
64520;SDS011;50896;46.714;17.322;2023-05-19T01:13:33;9.63;;;5.65;;
64520;SDS011;50896;46.714;17.322;2023-05-19T01:16:12;11.70;;;6.15;;
64520;SDS011;50896;46.714;17.322;2023-05-19T01:19:40;13.57;;;6.22;;
64520;SDS011;50896;46.714;17.322;2023-05-19T01:22:12;11.45;;;5.63;;
64520;SDS011;50896;46.714;17.322;2023-05-19T01:30:42;9.65;;;5.50;;
64520;SDS011;50896;46.714;17.322;2023-05-19T01:33:11;10.68;;;5.32;;
64520;SDS011;50896;46.714;17.322;2023-05-19T01:35:40;11.05;;;5.90;;
64520;SDS011;50896;46.714;17.322;2023-05-19T01:38:09;10.32;;;5.53;;
64520;SDS011;50896;46.714;17.322;2023-05-19T01:43:07;10.98;;;5.85;;
64520;SDS011;50896;46.714;17.322;2023-05-19T01:45:39;9.90;;;5.45;;
64520;SDS011;50896;46.714;17.322;2023-05-19T01:48:07;9.13;;;5.57;;
64520;SDS011;50896;46.714;17.322;2023-05-19T01:50:37;8.93;;;5.32;;
64520;SDS011;50896;46.714;17.322;2023-05-19T01:53:05;11.10;;;6.43;;
64520;SDS011;50896;46.714;17.322;2023-05-19T01:55:34;12.45;;;6.13;;
64520;SDS011;50896;46.714;17.322;2023-05-19T02:06:29;9.98;;;5.78;;
64520;SDS011;50896;46.714;17.322;2023-05-19T02:09:04;7.28;;;5.43;;
64520;SDS011;50896;46.714;17.322;2023-05-19T02:11:44;8.80;;;6.18;;
64520;SDS011;50896;46.714;17.322;2023-05-19T02:14:34;10.77;;;6.35;;
64520;SDS011;50896;46.714;17.322;2023-05-19T02:17:05;13.05;;;6.85;;
64520;SDS011;50896;46.714;17.322;2023-05-19T02:19:36;13.68;;;6.57;;
64520;SDS011;50896;46.714;17.322;2023-05-19T02:22:04;14.55;;;6.53;;
64520;SDS011;50896;46.714;17.322;2023-05-19T02:24:32;10.45;;;7.40;;
64520;SDS011;50896;46.714;17.322;2023-05-19T02:26:59;10.95;;;7.28;;
64520;SDS011;50896;46.714;17.322;2023-05-19T02:29:26;13.38;;;7.70;;
64520;SDS011;50896;46.714;17.322;2023-05-19T02:31:53;9.80;;;6.65;;
64520;SDS011;50896;46.714;17.322;2023-05-19T02:34:20;9.63;;;7.03;;
64520;SDS011;50896;46.714;17.322;2023-05-19T02:36:47;13.52;;;7.65;;
64520;SDS011;50896;46.714;17.322;2023-05-19T02:39:17;16.70;;;8.20;;
64520;SDS011;50896;46.714;17.322;2023-05-19T02:41:43;12.75;;;8.45;;
64520;SDS011;50896;46.714;17.322;2023-05-19T02:44:10;13.30;;;7.75;;
64520;SDS011;50896;46.714;17.322;2023-05-19T02:46:37;11.75;;;8.70;;
64520;SDS011;50896;46.714;17.322;2023-05-19T02:49:04;14.02;;;8.85;;
64520;SDS011;50896;46.714;17.322;2023-05-19T02:51:31;16.05;;;8.52;;
64520;SDS011;50896;46.714;17.322;2023-05-19T02:53:58;14.32;;;9.23;;
64520;SDS011;50896;46.714;17.322;2023-05-19T02:56:25;14.07;;;8.45;;
64520;SDS011;50896;46.714;17.322;2023-05-19T02:58:53;13.90;;;8.50;;
64520;SDS011;50896;46.714;17.322;2023-05-19T03:01:20;17.48;;;9.98;;
64520;SDS011;50896;46.714;17.322;2023-05-19T03:03:48;13.57;;;9.07;;
64520;SDS011;50896;46.714;17.322;2023-05-19T03:06:15;12.05;;;9.88;;
64520;SDS011;50896;46.714;17.322;2023-05-19T03:08:43;14.45;;;10.45;;
64520;SDS011;50896;46.714;17.322;2023-05-19T03:11:10;16.23;;;9.93;;
64520;SDS011;50896;46.714;17.322;2023-05-19T03:13:37;16.58;;;9.80;;
64520;SDS011;50896;46.714;17.322;2023-05-19T03:16:04;14.95;;;9.82;;
64520;SDS011;50896;46.714;17.322;2023-05-19T03:18:33;14.35;;;10.20;;
64520;SDS011;50896;46.714;17.322;2023-05-19T03:21:00;13.85;;;10.23;;
64520;SDS011;50896;46.714;17.322;2023-05-19T03:23:27;16.00;;;10.48;;
64520;SDS011;50896;46.714;17.322;2023-05-19T03:25:54;17.40;;;10.65;;
64520;SDS011;50896;46.714;17.322;2023-05-19T03:28:21;13.82;;;10.90;;
64520;SDS011;50896;46.714;17.322;2023-05-19T03:30:48;16.20;;;10.80;;
64520;SDS011;50896;46.714;17.322;2023-05-19T03:33:19;17.45;;;11.23;;
64520;SDS011;50896;46.714;17.322;2023-05-19T03:35:46;19.00;;;11.30;;
64520;SDS011;50896;46.714;17.322;2023-05-19T03:38:14;14.70;;;11.48;;
64520;SDS011;50896;46.714;17.322;2023-05-19T03:40:48;16.63;;;11.07;;
64520;SDS011;50896;46.714;17.322;2023-05-19T03:43:15;16.75;;;12.07;;
64520;SDS011;50896;46.714;17.322;2023-05-19T03:45:47;17.70;;;11.88;;
64520;SDS011;50896;46.714;17.322;2023-05-19T03:48:33;15.57;;;11.60;;
64520;SDS011;50896;46.714;17.322;2023-05-19T03:51:26;20.80;;;11.70;;
64520;SDS011;50896;46.714;17.322;2023-05-19T03:53:59;16.52;;;11.63;;
64520;SDS011;50896;46.714;17.322;2023-05-19T03:56:26;15.70;;;10.88;;
64520;SDS011;50896;46.714;17.322;2023-05-19T03:58:53;15.02;;;11.50;;
64520;SDS011;50896;46.714;17.322;2023-05-19T04:01:20;18.23;;;11.75;;
64520;SDS011;50896;46.714;17.322;2023-05-19T04:03:47;16.70;;;11.07;;
64520;SDS011;50896;46.714;17.322;2023-05-19T04:06:14;18.73;;;11.73;;
64520;SDS011;50896;46.714;17.322;2023-05-19T04:08:41;14.93;;;10.90;;
64520;SDS011;50896;46.714;17.322;2023-05-19T04:13:37;15.48;;;10.75;;
64520;SDS011;50896;46.714;17.322;2023-05-19T04:16:05;17.25;;;10.43;;
64520;SDS011;50896;46.714;17.322;2023-05-19T04:18:32;15.77;;;11.02;;
64520;SDS011;50896;46.714;17.322;2023-05-19T04:20:59;16.52;;;10.77;;
64520;SDS011;50896;46.714;17.322;2023-05-19T04:23:27;15.63;;;10.50;;
64520;SDS011;50896;46.714;17.322;2023-05-19T04:25:53;15.93;;;10.15;;
64520;SDS011;50896;46.714;17.322;2023-05-19T04:28:22;14.60;;;11.02;;
64520;SDS011;50896;46.714;17.322;2023-05-19T04:30:49;17.30;;;10.25;;
64520;SDS011;50896;46.714;17.322;2023-05-19T04:33:17;14.57;;;9.27;;
64520;SDS011;50896;46.714;17.322;2023-05-19T04:35:45;14.50;;;10.50;;
64520;SDS011;50896;46.714;17.322;2023-05-19T04:38:13;13.73;;;9.52;;
64520;SDS011;50896;46.714;17.322;2023-05-19T04:40:46;15.88;;;9.90;;
64520;SDS011;50896;46.714;17.322;2023-05-19T04:45:44;15.68;;;10.48;;
64520;SDS011;50896;46.714;17.322;2023-05-19T04:48:13;15.27;;;9.38;;
64520;SDS011;50896;46.714;17.322;2023-05-19T04:50:40;16.17;;;10.70;;
64520;SDS011;50896;46.714;17.322;2023-05-19T04:53:08;14.80;;;10.15;;
64520;SDS011;50896;46.714;17.322;2023-05-19T04:55:35;12.57;;;9.98;;
64520;SDS011;50896;46.714;17.322;2023-05-19T04:58:04;13.95;;;9.90;;
64520;SDS011;50896;46.714;17.322;2023-05-19T05:00:32;16.23;;;11.15;;
64520;SDS011;50896;46.714;17.322;2023-05-19T05:03:04;16.27;;;10.65;;
64520;SDS011;50896;46.714;17.322;2023-05-19T05:05:33;18.23;;;11.27;;
64520;SDS011;50896;46.714;17.322;2023-05-19T05:08:00;17.00;;;11.10;;
64520;SDS011;50896;46.714;17.322;2023-05-19T05:10:31;18.38;;;11.95;;
64520;SDS011;50896;46.714;17.322;2023-05-19T05:12:59;18.90;;;11.68;;
64520;SDS011;50896;46.714;17.322;2023-05-19T05:15:28;15.27;;;10.48;;
64520;SDS011;50896;46.714;17.322;2023-05-19T05:17:57;15.88;;;10.57;;
64520;SDS011;50896;46.714;17.322;2023-05-19T05:20:25;14.15;;;10.07;;
64520;SDS011;50896;46.714;17.322;2023-05-19T05:22:52;15.18;;;9.68;;
64520;SDS011;50896;46.714;17.322;2023-05-19T05:25:20;13.40;;;10.32;;
64520;SDS011;50896;46.714;17.322;2023-05-19T05:27:48;15.63;;;9.40;;
64520;SDS011;50896;46.714;17.322;2023-05-19T05:30:15;14.60;;;10.02;;
64520;SDS011;50896;46.714;17.322;2023-05-19T05:32:42;14.60;;;9.18;;
64520;SDS011;50896;46.714;17.322;2023-05-19T05:35:22;16.45;;;9.88;;
64520;SDS011;50896;46.714;17.322;2023-05-19T05:37:49;10.60;;;8.65;;
64520;SDS011;50896;46.714;17.322;2023-05-19T05:40:16;12.10;;;9.02;;
64520;SDS011;50896;46.714;17.322;2023-05-19T05:42:44;15.82;;;9.50;;
64520;SDS011;50896;46.714;17.322;2023-05-19T05:45:11;13.35;;;9.30;;
64520;SDS011;50896;46.714;17.322;2023-05-19T05:47:39;14.95;;;10.38;;
64520;SDS011;50896;46.714;17.322;2023-05-19T05:50:07;14.50;;;10.25;;
64520;SDS011;50896;46.714;17.322;2023-05-19T05:52:35;10.65;;;9.02;;
64520;SDS011;50896;46.714;17.322;2023-05-19T05:55:03;12.52;;;9.25;;
64520;SDS011;50896;46.714;17.322;2023-05-19T05:57:32;13.27;;;8.70;;
64520;SDS011;50896;46.714;17.322;2023-05-19T06:00:03;13.15;;;9.13;;
64520;SDS011;50896;46.714;17.322;2023-05-19T06:02:44;15.20;;;9.00;;
64520;SDS011;50896;46.714;17.322;2023-05-19T06:05:14;16.45;;;10.18;;
64520;SDS011;50896;46.714;17.322;2023-05-19T06:07:41;12.40;;;8.38;;
64520;SDS011;50896;46.714;17.322;2023-05-19T06:10:11;15.48;;;8.80;;
64520;SDS011;50896;46.714;17.322;2023-05-19T06:12:37;11.43;;;8.52;;
64520;SDS011;50896;46.714;17.322;2023-05-19T06:15:06;15.65;;;9.77;;
64520;SDS011;50896;46.714;17.322;2023-05-19T06:17:55;17.85;;;10.02;;
64520;SDS011;50896;46.714;17.322;2023-05-19T06:20:22;15.63;;;9.73;;
64520;SDS011;50896;46.714;17.322;2023-05-19T06:22:49;12.77;;;9.57;;
64520;SDS011;50896;46.714;17.322;2023-05-19T06:25:19;17.13;;;9.68;;
64520;SDS011;50896;46.714;17.322;2023-05-19T06:27:46;12.77;;;9.30;;
64520;SDS011;50896;46.714;17.322;2023-05-19T06:30:14;13.27;;;9.00;;
64520;SDS011;50896;46.714;17.322;2023-05-19T06:32:59;14.68;;;9.65;;
64520;SDS011;50896;46.714;17.322;2023-05-19T06:35:28;15.63;;;11.03;;
64520;SDS011;50896;46.714;17.322;2023-05-19T06:37:55;16.15;;;10.40;;
64520;SDS011;50896;46.714;17.322;2023-05-19T06:40:22;16.52;;;10.48;;
64520;SDS011;50896;46.714;17.322;2023-05-19T06:42:49;16.52;;;10.07;;
64520;SDS011;50896;46.714;17.322;2023-05-19T06:45:35;15.85;;;10.98;;
64520;SDS011;50896;46.714;17.322;2023-05-19T06:48:03;15.65;;;9.82;;
64520;SDS011;50896;46.714;17.322;2023-05-19T06:50:30;16.63;;;9.73;;
64520;SDS011;50896;46.714;17.322;2023-05-19T06:52:57;15.02;;;9.18;;
64520;SDS011;50896;46.714;17.322;2023-05-19T06:55:24;18.73;;;10.50;;
64520;SDS011;50896;46.714;17.322;2023-05-19T06:57:51;15.90;;;11.25;;
64520;SDS011;50896;46.714;17.322;2023-05-19T07:00:18;18.50;;;10.30;;
64520;SDS011;50896;46.714;17.322;2023-05-19T07:02:56;19.92;;;10.32;;
64520;SDS011;50896;46.714;17.322;2023-05-19T07:05:23;13.13;;;9.10;;
64520;SDS011;50896;46.714;17.322;2023-05-19T07:07:54;15.07;;;9.43;;
64520;SDS011;50896;46.714;17.322;2023-05-19T07:10:24;16.13;;;8.38;;
64520;SDS011;50896;46.714;17.322;2023-05-19T07:12:52;16.70;;;8.73;;
64520;SDS011;50896;46.714;17.322;2023-05-19T07:15:22;18.33;;;8.85;;
64520;SDS011;50896;46.714;17.322;2023-05-19T07:17:49;12.30;;;8.57;;
64520;SDS011;50896;46.714;17.322;2023-05-19T07:20:16;12.70;;;8.63;;
64520;SDS011;50896;46.714;17.322;2023-05-19T07:22:42;14.13;;;8.80;;
64520;SDS011;50896;46.714;17.322;2023-05-19T07:25:09;12.25;;;7.70;;
64520;SDS011;50896;46.714;17.322;2023-05-19T07:27:37;15.70;;;8.57;;
64520;SDS011;50896;46.714;17.322;2023-05-19T07:30:09;15.98;;;7.72;;
64520;SDS011;50896;46.714;17.322;2023-05-19T07:32:36;14.18;;;8.48;;
64520;SDS011;50896;46.714;17.322;2023-05-19T07:35:04;11.35;;;7.70;;
64520;SDS011;50896;46.714;17.322;2023-05-19T07:37:31;13.90;;;7.57;;
64520;SDS011;50896;46.714;17.322;2023-05-19T07:39:58;18.13;;;8.27;;
64520;SDS011;50896;46.714;17.322;2023-05-19T07:42:25;12.18;;;8.52;;
64520;SDS011;50896;46.714;17.322;2023-05-19T07:44:52;14.18;;;7.55;;
64520;SDS011;50896;46.714;17.322;2023-05-19T07:47:18;13.38;;;8.27;;
64520;SDS011;50896;46.714;17.322;2023-05-19T07:49:45;16.95;;;9.23;;
64520;SDS011;50896;46.714;17.322;2023-05-19T07:52:15;14.10;;;8.80;;
64520;SDS011;50896;46.714;17.322;2023-05-19T07:54:44;14.63;;;8.10;;
64520;SDS011;50896;46.714;17.322;2023-05-19T07:57:11;14.30;;;8.90;;
64520;SDS011;50896;46.714;17.322;2023-05-19T07:59:38;12.68;;;7.45;;
64520;SDS011;50896;46.714;17.322;2023-05-19T08:02:04;11.93;;;7.72;;
64520;SDS011;50896;46.714;17.322;2023-05-19T08:04:31;13.98;;;8.25;;
64520;SDS011;50896;46.714;17.322;2023-05-19T08:06:58;18.27;;;9.63;;
64520;SDS011;50896;46.714;17.322;2023-05-19T08:09:25;15.45;;;8.68;;
64520;SDS011;50896;46.714;17.322;2023-05-19T08:11:52;17.13;;;9.20;;
64520;SDS011;50896;46.714;17.322;2023-05-19T08:14:19;16.40;;;8.55;;
64520;SDS011;50896;46.714;17.322;2023-05-19T08:16:48;13.77;;;8.80;;
64520;SDS011;50896;46.714;17.322;2023-05-19T08:19:15;13.07;;;7.45;;
64520;SDS011;50896;46.714;17.322;2023-05-19T08:21:42;14.23;;;8.50;;
64520;SDS011;50896;46.714;17.322;2023-05-19T08:24:10;30.00;;;9.55;;
64520;SDS011;50896;46.714;17.322;2023-05-19T08:26:37;29.70;;;9.68;;
64520;SDS011;50896;46.714;17.322;2023-05-19T08:29:03;16.50;;;8.70;;
64520;SDS011;50896;46.714;17.322;2023-05-19T08:31:30;14.60;;;9.10;;
64520;SDS011;50896;46.714;17.322;2023-05-19T08:33:57;19.25;;;9.25;;
64520;SDS011;50896;46.714;17.322;2023-05-19T08:36:24;17.30;;;9.27;;
64520;SDS011;50896;46.714;17.322;2023-05-19T08:38:51;17.75;;;8.13;;
64520;SDS011;50896;46.714;17.322;2023-05-19T08:41:18;16.90;;;8.77;;
64520;SDS011;50896;46.714;17.322;2023-05-19T08:43:45;23.05;;;9.90;;
64520;SDS011;50896;46.714;17.322;2023-05-19T08:46:12;17.45;;;8.68;;
64520;SDS011;50896;46.714;17.322;2023-05-19T08:48:41;16.98;;;8.70;;
64520;SDS011;50896;46.714;17.322;2023-05-19T08:51:26;18.20;;;8.75;;
64520;SDS011;50896;46.714;17.322;2023-05-19T08:54:16;18.30;;;8.93;;
64520;SDS011;50896;46.714;17.322;2023-05-19T08:56:43;18.70;;;8.48;;
64520;SDS011;50896;46.714;17.322;2023-05-19T08:59:12;16.15;;;8.50;;
64520;SDS011;50896;46.714;17.322;2023-05-19T09:01:43;17.50;;;7.97;;
64520;SDS011;50896;46.714;17.322;2023-05-19T09:04:11;15.18;;;8.02;;
64520;SDS011;50896;46.714;17.322;2023-05-19T09:06:39;14.63;;;8.00;;
64520;SDS011;50896;46.714;17.322;2023-05-19T09:09:10;14.75;;;7.72;;
64520;SDS011;50896;46.714;17.322;2023-05-19T09:11:37;15.00;;;7.53;;
64520;SDS011;50896;46.714;17.322;2023-05-19T09:14:04;14.18;;;7.53;;
64520;SDS011;50896;46.714;17.322;2023-05-19T09:16:31;12.70;;;7.32;;
64520;SDS011;50896;46.714;17.322;2023-05-19T09:18:59;12.07;;;6.18;;
64520;SDS011;50896;46.714;17.322;2023-05-19T09:21:27;10.82;;;6.30;;
64520;SDS011;50896;46.714;17.322;2023-05-19T09:23:57;13.90;;;6.63;;
64520;SDS011;50896;46.714;17.322;2023-05-19T09:26:39;13.20;;;7.20;;
64520;SDS011;50896;46.714;17.322;2023-05-19T09:29:15;13.57;;;7.35;;
64520;SDS011;50896;46.714;17.322;2023-05-19T09:31:50;11.55;;;7.88;;
64520;SDS011;50896;46.714;17.322;2023-05-19T09:34:19;12.50;;;7.88;;
64520;SDS011;50896;46.714;17.322;2023-05-19T09:36:47;11.50;;;7.45;;
64520;SDS011;50896;46.714;17.322;2023-05-19T09:39:15;11.18;;;6.25;;
64520;SDS011;50896;46.714;17.322;2023-05-19T09:41:43;10.18;;;5.95;;
64520;SDS011;50896;46.714;17.322;2023-05-19T09:46:47;7.82;;;4.70;;
64520;SDS011;50896;46.714;17.322;2023-05-19T09:49:19;13.10;;;5.60;;
64520;SDS011;50896;46.714;17.322;2023-05-19T09:51:57;8.30;;;5.78;;
64520;SDS011;50896;46.714;17.322;2023-05-19T09:54:27;10.90;;;5.38;;
64520;SDS011;50896;46.714;17.322;2023-05-19T09:56:59;8.50;;;6.05;;
64520;SDS011;50896;46.714;17.322;2023-05-19T09:59:27;9.23;;;6.00;;
64520;SDS011;50896;46.714;17.322;2023-05-19T10:01:59;8.40;;;5.60;;
64520;SDS011;50896;46.714;17.322;2023-05-19T10:04:26;12.15;;;7.07;;
64520;SDS011;50896;46.714;17.322;2023-05-19T10:06:56;11.00;;;6.35;;
64520;SDS011;50896;46.714;17.322;2023-05-19T10:09:28;10.88;;;7.65;;
64520;SDS011;50896;46.714;17.322;2023-05-19T10:11:56;10.90;;;6.38;;
64520;SDS011;50896;46.714;17.322;2023-05-19T10:14:25;13.35;;;7.20;;
64520;SDS011;50896;46.714;17.322;2023-05-19T10:16:54;11.35;;;6.28;;
64520;SDS011;50896;46.714;17.322;2023-05-19T10:19:28;10.15;;;6.10;;
64520;SDS011;50896;46.714;17.322;2023-05-19T10:21:55;10.55;;;6.00;;
64520;SDS011;50896;46.714;17.322;2023-05-19T10:24:22;6.75;;;4.88;;
64520;SDS011;50896;46.714;17.322;2023-05-19T10:26:54;8.68;;;4.88;;
64520;SDS011;50896;46.714;17.322;2023-05-19T10:29:33;7.47;;;4.60;;
64520;SDS011;50896;46.714;17.322;2023-05-19T10:32:05;11.75;;;5.00;;
64520;SDS011;50896;46.714;17.322;2023-05-19T10:39:57;9.55;;;4.90;;
64520;SDS011;50896;46.714;17.322;2023-05-19T10:42:28;6.93;;;4.35;;
64520;SDS011;50896;46.714;17.322;2023-05-19T10:45:21;7.43;;;4.43;;
64520;SDS011;50896;46.714;17.322;2023-05-19T10:47:53;6.07;;;4.75;;
64520;SDS011;50896;46.714;17.322;2023-05-19T10:50:20;9.73;;;4.68;;
64520;SDS011;50896;46.714;17.322;2023-05-19T10:52:54;6.32;;;4.30;;
64520;SDS011;50896;46.714;17.322;2023-05-19T10:58:10;7.07;;;4.35;;
64520;SDS011;50896;46.714;17.322;2023-05-19T11:00:37;7.03;;;4.60;;
64520;SDS011;50896;46.714;17.322;2023-05-19T11:05:49;7.45;;;5.20;;
64520;SDS011;50896;46.714;17.322;2023-05-19T11:08:30;8.23;;;5.40;;
64520;SDS011;50896;46.714;17.322;2023-05-19T11:11:10;6.72;;;4.70;;
64520;SDS011;50896;46.714;17.322;2023-05-19T11:13:40;8.50;;;5.13;;
64520;SDS011;50896;46.714;17.322;2023-05-19T11:16:12;9.30;;;5.10;;
64520;SDS011;50896;46.714;17.322;2023-05-19T11:18:40;7.05;;;4.40;;
64520;SDS011;50896;46.714;17.322;2023-05-19T11:21:07;6.25;;;4.50;;
64520;SDS011;50896;46.714;17.322;2023-05-19T11:23:36;5.78;;;4.82;;
64520;SDS011;50896;46.714;17.322;2023-05-19T11:26:05;4.22;;;1.85;;
64520;SDS011;50896;46.714;17.322;2023-05-19T11:28:34;4.95;;;2.20;;
64520;SDS011;50896;46.714;17.322;2023-05-19T11:31:02;5.32;;;2.15;;
64520;SDS011;50896;46.714;17.322;2023-05-19T11:33:33;7.97;;;3.80;;
64520;SDS011;50896;46.714;17.322;2023-05-19T11:36:00;6.18;;;4.45;;
64520;SDS011;50896;46.714;17.322;2023-05-19T11:38:28;7.40;;;3.55;;
64520;SDS011;50896;46.714;17.322;2023-05-19T11:40:55;3.85;;;3.22;;
64520;SDS011;50896;46.714;17.322;2023-05-19T11:43:23;5.90;;;3.33;;
64520;SDS011;50896;46.714;17.322;2023-05-19T11:45:50;6.50;;;3.55;;
64520;SDS011;50896;46.714;17.322;2023-05-19T11:48:21;7.82;;;4.13;;
64520;SDS011;50896;46.714;17.322;2023-05-19T11:50:49;8.10;;;4.13;;
64520;SDS011;50896;46.714;17.322;2023-05-19T11:53:16;7.82;;;5.00;;
64520;SDS011;50896;46.714;17.322;2023-05-19T11:55:45;7.13;;;3.50;;
64520;SDS011;50896;46.714;17.322;2023-05-19T11:58:13;12.20;;;4.80;;
64520;SDS011;50896;46.714;17.322;2023-05-19T12:00:41;6.30;;;4.53;;
64520;SDS011;50896;46.714;17.322;2023-05-19T12:03:11;6.85;;;4.60;;
64520;SDS011;50896;46.714;17.322;2023-05-19T12:05:43;7.70;;;4.72;;
64520;SDS011;50896;46.714;17.322;2023-05-19T12:08:13;7.13;;;4.68;;
64520;SDS011;50896;46.714;17.322;2023-05-19T12:10:42;8.35;;;5.25;;
64520;SDS011;50896;46.714;17.322;2023-05-19T12:13:09;8.63;;;5.40;;
64520;SDS011;50896;46.714;17.322;2023-05-19T12:15:36;7.13;;;5.07;;
64520;SDS011;50896;46.714;17.322;2023-05-19T12:18:04;9.77;;;4.43;;
64520;SDS011;50896;46.714;17.322;2023-05-19T12:20:32;6.50;;;4.15;;
64520;SDS011;50896;46.714;17.322;2023-05-19T12:23:01;6.25;;;4.63;;
64520;SDS011;50896;46.714;17.322;2023-05-19T12:25:29;6.80;;;4.55;;
64520;SDS011;50896;46.714;17.322;2023-05-19T12:27:58;7.75;;;4.75;;
64520;SDS011;50896;46.714;17.322;2023-05-19T12:30:26;5.00;;;4.50;;
64520;SDS011;50896;46.714;17.322;2023-05-19T12:32:57;6.75;;;4.10;;
64520;SDS011;50896;46.714;17.322;2023-05-19T12:35:31;8.30;;;5.43;;
64520;SDS011;50896;46.714;17.322;2023-05-19T12:38:10;11.15;;;5.70;;
64520;SDS011;50896;46.714;17.322;2023-05-19T12:40:39;8.63;;;4.72;;
64520;SDS011;50896;46.714;17.322;2023-05-19T12:43:06;7.03;;;4.65;;
64520;SDS011;50896;46.714;17.322;2023-05-19T12:45:35;8.35;;;4.65;;
64520;SDS011;50896;46.714;17.322;2023-05-19T12:48:12;6.95;;;3.85;;
64520;SDS011;50896;46.714;17.322;2023-05-19T12:50:41;5.43;;;3.95;;
64520;SDS011;50896;46.714;17.322;2023-05-19T12:53:12;4.93;;;3.78;;
64520;SDS011;50896;46.714;17.322;2023-05-19T12:55:42;5.95;;;3.40;;
64520;SDS011;50896;46.714;17.322;2023-05-19T13:00:40;5.80;;;3.83;;
64520;SDS011;50896;46.714;17.322;2023-05-19T13:03:18;7.55;;;4.32;;
64520;SDS011;50896;46.714;17.322;2023-05-19T13:05:47;6.72;;;4.45;;
64520;SDS011;50896;46.714;17.322;2023-05-19T13:08:16;4.90;;;4.00;;
64520;SDS011;50896;46.714;17.322;2023-05-19T13:10:46;6.75;;;3.75;;
64520;SDS011;50896;46.714;17.322;2023-05-19T13:13:13;5.20;;;3.22;;
64520;SDS011;50896;46.714;17.322;2023-05-19T13:15:41;4.88;;;3.17;;
64520;SDS011;50896;46.714;17.322;2023-05-19T13:18:10;3.80;;;3.37;;
64520;SDS011;50896;46.714;17.322;2023-05-19T13:20:38;4.47;;;2.83;;
64520;SDS011;50896;46.714;17.322;2023-05-19T13:23:09;4.72;;;3.13;;
64520;SDS011;50896;46.714;17.322;2023-05-19T13:25:36;5.65;;;3.20;;
64520;SDS011;50896;46.714;17.322;2023-05-19T13:28:03;4.18;;;3.10;;
64520;SDS011;50896;46.714;17.322;2023-05-19T13:30:31;5.50;;;3.30;;
64520;SDS011;50896;46.714;17.322;2023-05-19T13:33:00;6.05;;;3.40;;
64520;SDS011;50896;46.714;17.322;2023-05-19T13:35:27;3.88;;;3.35;;
64520;SDS011;50896;46.714;17.322;2023-05-19T13:37:54;4.38;;;3.47;;
64520;SDS011;50896;46.714;17.322;2023-05-19T13:40:21;5.18;;;3.47;;
64520;SDS011;50896;46.714;17.322;2023-05-19T13:42:49;6.32;;;3.30;;
64520;SDS011;50896;46.714;17.322;2023-05-19T13:45:16;3.30;;;3.00;;
64520;SDS011;50896;46.714;17.322;2023-05-19T13:47:43;3.05;;;2.75;;
64520;SDS011;50896;46.714;17.322;2023-05-19T13:50:10;5.90;;;3.40;;
64520;SDS011;50896;46.714;17.322;2023-05-19T13:52:37;5.47;;;3.05;;
64520;SDS011;50896;46.714;17.322;2023-05-19T13:55:05;4.30;;;3.25;;
64520;SDS011;50896;46.714;17.322;2023-05-19T13:57:32;7.68;;;4.05;;
64520;SDS011;50896;46.714;17.322;2023-05-19T13:59:59;5.63;;;3.35;;
64520;SDS011;50896;46.714;17.322;2023-05-19T14:02:38;5.43;;;3.63;;
64520;SDS011;50896;46.714;17.322;2023-05-19T14:05:06;6.35;;;3.90;;
64520;SDS011;50896;46.714;17.322;2023-05-19T14:07:33;5.90;;;3.28;;
64520;SDS011;50896;46.714;17.322;2023-05-19T14:10:01;5.47;;;3.50;;
64520;SDS011;50896;46.714;17.322;2023-05-19T14:12:29;3.95;;;3.38;;
64520;SDS011;50896;46.714;17.322;2023-05-19T14:15:13;4.10;;;3.20;;
64520;SDS011;50896;46.714;17.322;2023-05-19T14:17:40;5.13;;;3.03;;
64520;SDS011;50896;46.714;17.322;2023-05-19T14:20:07;3.20;;;2.90;;
64520;SDS011;50896;46.714;17.322;2023-05-19T14:22:35;3.63;;;2.63;;
64520;SDS011;50896;46.714;17.322;2023-05-19T14:25:01;8.43;;;3.30;;
64520;SDS011;50896;46.714;17.322;2023-05-19T14:27:29;5.13;;;2.72;;
64520;SDS011;50896;46.714;17.322;2023-05-19T14:29:55;4.93;;;3.00;;
64520;SDS011;50896;46.714;17.322;2023-05-19T14:32:22;3.88;;;2.80;;
64520;SDS011;50896;46.714;17.322;2023-05-19T14:34:49;3.67;;;2.83;;
64520;SDS011;50896;46.714;17.322;2023-05-19T14:37:19;3.63;;;3.28;;
64520;SDS011;50896;46.714;17.322;2023-05-19T14:39:46;4.05;;;2.63;;
64520;SDS011;50896;46.714;17.322;2023-05-19T14:42:13;3.83;;;3.08;;
64520;SDS011;50896;46.714;17.322;2023-05-19T14:44:40;3.38;;;3.08;;
64520;SDS011;50896;46.714;17.322;2023-05-19T14:47:07;3.17;;;2.72;;
64520;SDS011;50896;46.714;17.322;2023-05-19T14:49:34;6.28;;;3.50;;
64520;SDS011;50896;46.714;17.322;2023-05-19T14:52:00;4.82;;;3.25;;
64520;SDS011;50896;46.714;17.322;2023-05-19T14:54:27;4.05;;;2.97;;
64520;SDS011;50896;46.714;17.322;2023-05-19T14:56:54;4.50;;;3.17;;
64520;SDS011;50896;46.714;17.322;2023-05-19T14:59:21;3.90;;;2.88;;
64520;SDS011;50896;46.714;17.322;2023-05-19T15:01:48;4.00;;;3.13;;
64520;SDS011;50896;46.714;17.322;2023-05-19T15:04:14;3.47;;;2.63;;
64520;SDS011;50896;46.714;17.322;2023-05-19T15:06:41;4.40;;;3.50;;
64520;SDS011;50896;46.714;17.322;2023-05-19T15:09:08;3.78;;;2.88;;
64520;SDS011;50896;46.714;17.322;2023-05-19T15:11:37;5.40;;;2.78;;
64520;SDS011;50896;46.714;17.322;2023-05-19T15:14:04;4.75;;;3.03;;